Time;durP1;ratioP1;P1;durP2;ratioP2;P2;SDS_P1;SDS_P2;PMS_P1;PMS_P2;Temp;Humidity;BMP_temperature;BMP_pressure;BME280_temperature;BME280_humidity;BME280_pressure;Samples;Min_cycle;Max_cycle;Signal;HPM_P1;HPM_P2
2023/08/03 00:00:42;;;;;;;;;;;;;;;-144.99;nan;52488.84;5025587;28;19975;-74
2023/08/03 00:03:09;;;;;;;;;;;;;;;-144.99;nan;52478.66;5027432;28;20031;-74
2023/08/03 00:05:37;;;;;;;;;;;;;;;-144.99;nan;52492.94;5029062;28;20011;-73
2023/08/03 00:08:03;;;;;;;;;;;;;;;-144.99;nan;52458.28;5024440;28;20052;-74
2023/08/03 00:10:31;;;;;;;;;;;;;;;-144.99;nan;52484.78;5022413;28;20369;-74
2023/08/03 00:12:58;;;;;;;;;;;;;;;-144.99;nan;52488.84;5029106;28;20398;-74
2023/08/03 00:15:24;;;;;;;;;;;;;;;-144.99;nan;52468.47;5025868;28;19968;-74
2023/08/03 00:17:51;;;;;;;;;;;;;;;-144.99;nan;52484.78;5029076;28;19928;-76
2023/08/03 00:20:18;;;;;;;;;;;;;;;-144.99;nan;52454.22;5014717;28;20005;-75
2023/08/03 00:22:46;;;;;;;;;;;;;;;-144.99;nan;52448.09;5029721;28;19926;-76
2023/08/03 00:25:13;;;;;;;;;;;;;;;-144.99;nan;52452.16;5030970;23;20193;-66
2023/08/03 00:27:39;;;;;;;;;;;;;;;-144.99;nan;52448.09;5008563;28;19999;-63
2023/08/03 00:30:06;;;;;;;;;;;;;;;-144.99;nan;52448.09;5002213;28;19929;-65
2023/08/03 00:32:33;;;;;;;;;;;;;;;-144.99;nan;52431.78;5004217;28;20004;-65
2023/08/03 00:34:59;;;;;;;;;;;;;;;-144.99;nan;52439.94;5005599;28;19969;-67
2023/08/03 00:37:25;;;;;;;;;;;;;;;-144.99;nan;52484.78;4994363;28;20012;-64
2023/08/03 00:39:53;;;;;;;;;;;;;;;-144.99;nan;52482.75;5004362;28;19984;-65
2023/08/03 00:42:20;;;;;;;;;;;;;;;-144.99;nan;52448.09;4998632;28;19980;-65
2023/08/03 00:44:46;;;;;;;;;;;;;;;-144.99;nan;52470.50;5005073;28;19980;-65
2023/08/03 00:47:13;;;;;;;;;;;;;;;-144.99;nan;52476.63;4997857;28;19999;-66
2023/08/03 00:49:39;;;;;;;;;;;;;;;-144.99;nan;52456.25;4999968;28;20003;-67
2023/08/03 00:52:06;;;;;;;;;;;;;;;-144.99;nan;52439.94;4991593;28;19972;-65
2023/08/03 00:54:33;;;;;;;;;;;;;;;-144.99;nan;52472.56;5005543;28;19929;-65
2023/08/03 00:57:01;;;;;;;;;;;;;;;-144.99;nan;52470.50;4999063;28;19983;-67
2023/08/03 00:59:27;;;;;;;;;;;;;;;-144.99;nan;52456.25;4991249;28;20367;-66
2023/08/03 01:01:53;;;;;;;;;;;;;;;-144.99;nan;52419.56;4992275;28;20029;-68
2023/08/03 01:04:20;;;;;;;;;;;;;;;-144.99;nan;52464.41;4993265;28;19977;-67
2023/08/03 01:06:46;;;;;;;;;;;;;;;-144.99;nan;52450.13;4997596;28;19929;-66
2023/08/03 01:09:13;;;;;;;;;;;;;;;-144.99;nan;52509.25;4999243;28;20083;-68
2023/08/03 01:11:42;;;;;;;;;;;;;;;-144.99;nan;52444.03;4993153;28;20047;-71
2023/08/03 01:14:11;;;;;;;;;;;;;;;-144.99;nan;52472.56;4993701;28;19992;-69
2023/08/03 01:16:37;;;;;;;;;;;;;;;-144.99;nan;52474.59;5001146;28;19984;-69
2023/08/03 01:19:04;;;;;;;;;;;;;;;-144.99;nan;52501.09;4994017;28;20033;-70
2023/08/03 01:21:32;;;;;;;;;;;;;;;-144.99;nan;52497.00;4989327;28;19977;-69
2023/08/03 01:24:00;;;;;;;;;;;;;;;-144.99;nan;52474.59;4998650;28;20019;-70
2023/08/03 01:26:26;;;;;;;;;;;;;;;-144.99;nan;52456.25;4998920;28;20164;-70
2023/08/03 01:28:53;;;;;;;;;;;;;;;-144.99;nan;52460.31;4994447;28;19972;-71
2023/08/03 01:31:20;;;;;;;;;;;;;;;-144.99;nan;52444.03;4993598;28;20036;-71
2023/08/03 01:33:46;;;;;;;;;;;;;;;-144.99;nan;52452.16;4994989;28;20012;-71
2023/08/03 01:36:13;;;;;;;;;;;;;;;-144.99;nan;52452.16;5001813;28;19968;-68
2023/08/03 01:38:39;;;;;;;;;;;;;;;-144.99;nan;52458.28;4991280;28;19977;-68
2023/08/03 01:41:07;;;;;;;;;;;;;;;-144.99;nan;52472.56;4998701;28;19930;-68
2023/08/03 01:43:33;;;;;;;;;;;;;;;-144.99;nan;52452.16;5002317;28;19975;-68
2023/08/03 01:46:00;;;;;;;;;;;;;;;-144.99;nan;52456.25;4990063;28;19926;-69
2023/08/03 01:48:26;;;;;;;;;;;;;;;-144.99;nan;52476.63;4992937;28;19969;-67
2023/08/03 01:50:53;;;;;;;;;;;;;;;-144.99;nan;52480.72;5001100;28;21434;-67
2023/08/03 01:53:19;;;;;;;;;;;;;;;-144.99;nan;52480.72;5000069;28;20046;-66
2023/08/03 01:55:46;;;;;;;;;;;;;;;-144.99;nan;52448.09;4996578;28;20013;-66
2023/08/03 01:58:15;;;;;;;;;;;;;;;-144.99;nan;52444.03;4996383;28;19965;-66
2023/08/03 02:00:41;;;;;;;;;;;;;;;-144.99;nan;52456.25;4996596;28;19961;-66
2023/08/03 02:03:08;;;;;;;;;;;;;;;-144.99;nan;52460.31;4996900;28;19945;-66
2023/08/03 02:05:34;;;;;;;;;;;;;;;-144.99;nan;52458.28;4992643;28;20028;-66
2023/08/03 02:08:01;;;;;;;;;;;;;;;-144.99;nan;52448.09;4991849;28;20089;-68
2023/08/03 02:10:27;;;;;;;;;;;;;;;-144.99;nan;52468.47;4997761;28;20008;-68
2023/08/03 02:12:54;;;;;;;;;;;;;;;-144.99;nan;52480.72;5000299;28;20008;-68
2023/08/03 02:15:21;;;;;;;;;;;;;;;-144.99;nan;52452.16;4996804;28;20358;-68
2023/08/03 02:17:48;;;;;;;;;;;;;;;-144.99;nan;52488.84;4997202;28;19965;-68
2023/08/03 02:20:14;;;;;;;;;;;;;;;-144.99;nan;52421.59;4999950;28;19926;-69
2023/08/03 02:22:41;;;;;;;;;;;;;;;-144.99;nan;52423.63;5002891;28;20012;-68
2023/08/03 02:25:08;;;;;;;;;;;;;;;-144.99;nan;52431.78;4997989;28;19930;-68
2023/08/03 02:27:34;;;;;;;;;;;;;;;-144.99;nan;52448.09;5000480;28;20012;-66
2023/08/03 02:30:00;;;;;;;;;;;;;;;-144.99;nan;52446.06;4997631;28;20004;-66
2023/08/03 02:32:28;;;;;;;;;;;;;;;-144.99;nan;52468.47;4999063;28;20024;-65
2023/08/03 02:34:55;;;;;;;;;;;;;;;-144.99;nan;52466.44;4999764;28;20079;-65
2023/08/03 02:37:21;;;;;;;;;;;;;;;-144.99;nan;52458.28;4999094;28;20346;-65
2023/08/03 02:39:48;;;;;;;;;;;;;;;-144.99;nan;52452.16;4998918;28;19980;-64
2023/08/03 02:42:14;;;;;;;;;;;;;;;-144.99;nan;52464.41;4996714;28;20026;-66
2023/08/03 02:44:40;;;;;;;;;;;;;;;-144.99;nan;52427.72;4994727;28;19926;-67
2023/08/03 02:47:07;;;;;;;;;;;;;;;-144.99;nan;52480.72;4997299;28;19927;-63
2023/08/03 02:49:35;;;;;;;;;;;;;;;-144.99;nan;52403.25;4999440;28;19929;-63
2023/08/03 02:52:01;;;;;;;;;;;;;;;-144.99;nan;52446.06;4998991;28;19926;-64
2023/08/03 02:54:28;;;;;;;;;;;;;;;-144.99;nan;52488.84;5007491;28;20168;-64
2023/08/03 02:56:54;;;;;;;;;;;;;;;-144.99;nan;52437.91;5006190;28;19957;-62
2023/08/03 02:59:21;;;;;;;;;;;;;;;-144.99;nan;52460.31;4993932;28;19929;-63
2023/08/03 03:01:47;;;;;;;;;;;;;;;-144.99;nan;52488.84;5000658;28;20039;-62
2023/08/03 03:04:14;;;;;;;;;;;;;;;-144.99;nan;52403.25;4997850;28;19975;-67
2023/08/03 03:06:42;;;;;;;;;;;;;;;-144.99;nan;52435.88;5000564;28;19983;-67
2023/08/03 03:09:08;;;;;;;;;;;;;;;-144.99;nan;52395.09;4996218;28;19926;-66
2023/08/03 03:11:35;;;;;;;;;;;;;;;-144.99;nan;52407.31;4995670;28;19926;-67
2023/08/03 03:14:01;;;;;;;;;;;;;;;-144.99;nan;52435.88;5002987;28;19926;-66
2023/08/03 03:16:28;;;;;;;;;;;;;;;-144.99;nan;52456.25;5000717;28;20013;-66
2023/08/03 03:18:54;;;;;;;;;;;;;;;-144.99;nan;52444.03;4996319;28;19992;-66
2023/08/03 03:21:21;;;;;;;;;;;;;;;-144.99;nan;52464.41;5004861;28;19989;-67
2023/08/03 03:23:49;;;;;;;;;;;;;;;-144.99;nan;52448.09;5001776;28;20474;-67
2023/08/03 03:26:15;;;;;;;;;;;;;;;-144.99;nan;52458.28;4999113;28;20003;-67
2023/08/03 03:28:42;;;;;;;;;;;;;;;-144.99;nan;52439.94;4996627;28;19926;-65
2023/08/03 03:31:08;;;;;;;;;;;;;;;-144.99;nan;52425.66;4996825;28;20024;-65
2023/08/03 03:33:35;;;;;;;;;;;;;;;-144.99;nan;52435.88;4990688;28;19969;-65
2023/08/03 03:36:01;;;;;;;;;;;;;;;-144.99;nan;52427.72;4997691;28;20032;-65
2023/08/03 03:38:28;;;;;;;;;;;;;;;-144.99;nan;52456.25;5000555;28;19965;-66
2023/08/03 03:40:56;;;;;;;;;;;;;;;-144.99;nan;52456.25;4991959;28;20398;-64
2023/08/03 03:43:22;;;;;;;;;;;;;;;-144.99;nan;52448.09;5000039;28;19972;-67
2023/08/03 03:45:48;;;;;;;;;;;;;;;-144.99;nan;52452.16;4997166;28;19967;-64
2023/08/03 03:48:15;;;;;;;;;;;;;;;-144.99;nan;52472.56;4994250;28;19932;-64
2023/08/03 03:50:41;;;;;;;;;;;;;;;-144.99;nan;52474.59;4991282;28;19957;-63
2023/08/03 03:53:08;;;;;;;;;;;;;;;-144.99;nan;52448.09;4992857;28;19925;-64
2023/08/03 03:55:34;;;;;;;;;;;;;;;-144.99;nan;52456.25;4992917;28;20013;-66
2023/08/03 03:58:02;;;;;;;;;;;;;;;-144.99;nan;52454.22;4998277;28;19929;-65
2023/08/03 04:00:29;;;;;;;;;;;;;;;-144.99;nan;52409.38;5000150;28;19937;-66
2023/08/03 04:02:55;;;;;;;;;;;;;;;-144.99;nan;52441.97;5000408;28;19929;-65
2023/08/03 04:05:22;;;;;;;;;;;;;;;-144.99;nan;52431.78;4995152;28;19997;-66
2023/08/03 04:07:48;;;;;;;;;;;;;;;-144.99;nan;52452.16;4995271;28;19965;-65
2023/08/03 04:10:15;;;;;;;;;;;;;;;-144.99;nan;52427.72;4995537;28;19993;-64
2023/08/03 04:12:41;;;;;;;;;;;;;;;-144.99;nan;52421.59;4995009;28;19972;-66
2023/08/03 04:15:10;;;;;;;;;;;;;;;-144.99;nan;52441.97;4992833;28;19972;-66
2023/08/03 04:17:37;;;;;;;;;;;;;;;-144.99;nan;52431.78;4995453;28;20000;-64
2023/08/03 04:20:04;;;;;;;;;;;;;;;-144.99;nan;52435.88;4994790;28;19936;-65
2023/08/03 04:22:30;;;;;;;;;;;;;;;-144.99;nan;52407.31;4991800;28;19925;-65
2023/08/03 04:24:57;;;;;;;;;;;;;;;-144.99;nan;52468.47;4993442;28;19965;-61
2023/08/03 04:27:23;;;;;;;;;;;;;;;-144.99;nan;52460.31;4997913;28;20008;-65
2023/08/03 04:29:50;;;;;;;;;;;;;;;-144.99;nan;52488.84;4997730;28;19969;-66
2023/08/03 04:32:18;;;;;;;;;;;;;;;-144.99;nan;52480.72;5000143;28;19995;-65
2023/08/03 04:34:44;;;;;;;;;;;;;;;-144.99;nan;52448.09;4997774;28;19929;-66
2023/08/03 04:37:10;;;;;;;;;;;;;;;-144.99;nan;52460.31;4998749;28;20296;-66
2023/08/03 04:39:37;;;;;;;;;;;;;;;-144.99;nan;52448.09;4992517;28;19965;-66
2023/08/03 04:42:03;;;;;;;;;;;;;;;-144.99;nan;52472.56;4994456;28;20394;-66
2023/08/03 04:44:30;;;;;;;;;;;;;;;-144.99;nan;52460.31;4994406;28;19960;-66
2023/08/03 04:46:56;;;;;;;;;;;;;;;-144.99;nan;52452.16;4998238;28;19977;-66
2023/08/03 04:49:25;;;;;;;;;;;;;;;-144.99;nan;52403.25;4994450;28;19980;-66
2023/08/03 04:51:52;;;;;;;;;;;;;;;-144.99;nan;52456.25;4993985;28;20016;-66
2023/08/03 04:54:18;;;;;;;;;;;;;;;-144.99;nan;52419.56;4990794;28;19980;-66
2023/08/03 04:56:45;;;;;;;;;;;;;;;-144.99;nan;52444.03;4993935;28;19925;-66
2023/08/03 04:59:11;;;;;;;;;;;;;;;-144.99;nan;52456.25;5003697;28;19925;-66
2023/08/03 05:01:38;;;;;;;;;;;;;;;-144.99;nan;52439.94;4993035;28;19949;-66
2023/08/03 05:04:04;;;;;;;;;;;;;;;-144.99;nan;52452.16;4997217;28;19930;-66
2023/08/03 05:06:32;;;;;;;;;;;;;;;-144.99;nan;52454.22;5002251;28;19993;-67
2023/08/03 05:08:58;;;;;;;;;;;;;;;-144.99;nan;52444.03;4993487;28;19972;-67
2023/08/03 05:11:25;;;;;;;;;;;;;;;-144.99;nan;52444.03;4999632;28;19930;-75
2023/08/03 05:13:51;;;;;;;;;;;;;;;-144.99;nan;52433.81;5002657;28;20065;-73
2023/08/03 05:16:24;;;;;;;;;;;;;;;-144.99;nan;52464.41;4995868;28;19983;-72
2023/08/03 05:18:50;;;;;;;;;;;;;;;-144.99;nan;52435.88;4995325;28;20102;-71
2023/08/03 05:21:17;;;;;;;;;;;;;;;-144.99;nan;52444.03;4994427;28;19930;-71
2023/08/03 05:23:45;;;;;;;;;;;;;;;-144.99;nan;52403.25;4993323;28;19964;-74
2023/08/03 05:26:12;;;;;;;;;;;;;;;-144.99;nan;52439.94;4651821;28;10000372;-75
2023/08/03 05:28:38;;;;;;;;;;;;;;;-144.99;nan;52468.47;4989742;28;19930;-73
2023/08/03 05:31:05;;;;;;;;;;;;;;;-144.99;nan;52431.78;4992169;28;20004;-74
2023/08/03 05:33:33;;;;;;;;;;;;;;;-144.99;nan;52413.44;5002498;28;19941;-72
2023/08/03 05:36:00;;;;;;;;;;;;;;;-144.99;nan;52444.03;5001165;28;20048;-74
2023/08/03 05:38:26;;;;;;;;;;;;;;;-144.99;nan;52464.41;4999537;28;20006;-73
2023/08/03 05:40:54;;;;;;;;;;;;;;;-144.99;nan;52423.63;5001287;28;20021;-73
2023/08/03 05:43:24;;;;;;;;;;;;;;;-144.99;nan;52474.59;5003991;28;19929;-73
2023/08/03 05:45:54;;;;;;;;;;;;;;;-144.99;nan;52464.41;5003881;28;19966;-78
2023/08/03 05:48:21;;;;;;;;;;;;;;;-144.99;nan;52478.66;5018670;28;20434;-76
2023/08/03 05:50:48;;;;;;;;;;;;;;;-144.99;nan;52431.78;5020434;28;19980;-77
2023/08/03 05:53:15;;;;;;;;;;;;;;;-144.99;nan;52415.47;4999770;28;19991;-72
2023/08/03 05:55:42;;;;;;;;;;;;;;;-144.99;nan;52439.94;5003820;28;20430;-74
2023/08/03 05:58:11;;;;;;;;;;;;;;;-144.99;nan;52468.47;4999866;28;20413;-73
2023/08/03 06:00:38;;;;;;;;;;;;;;;-144.99;nan;52413.44;4998247;28;20027;-75
2023/08/03 06:03:04;;;;;;;;;;;;;;;-144.99;nan;52452.16;4998247;28;19967;-73
2023/08/03 06:05:47;;;;;;;;;;;;;;;-144.99;nan;52423.63;4999659;28;20016;-73
2023/08/03 06:08:17;;;;;;;;;;;;;;;-144.99;nan;52427.72;4995534;28;20356;-72
2023/08/03 06:10:44;;;;;;;;;;;;;;;-144.99;nan;52444.03;4994877;28;19967;-74
2023/08/03 06:13:14;;;;;;;;;;;;;;;-144.99;nan;52427.72;4997470;28;19985;-74
2023/08/03 06:15:41;;;;;;;;;;;;;;;-144.99;nan;52415.47;5001384;28;19968;-73
2023/08/03 06:18:10;;;;;;;;;;;;;;;-144.99;nan;52452.16;4995017;28;20069;-73
2023/08/03 06:20:39;;;;;;;;;;;;;;;-144.99;nan;52439.94;4990258;28;19975;-75
2023/08/03 06:23:06;;;;;;;;;;;;;;;-144.99;nan;52399.19;4994273;28;20044;-73
2023/08/03 06:25:32;;;;;;;;;;;;;;;-144.99;nan;52460.31;4994567;28;19975;-75
2023/08/03 06:28:01;;;;;;;;;;;;;;;-144.99;nan;52435.88;5004755;28;19950;-74
2023/08/03 06:30:28;;;;;;;;;;;;;;;-144.99;nan;52458.28;4993238;28;20452;-74
2023/08/03 06:32:55;;;;;;;;;;;;;;;-144.99;nan;52435.88;4995197;28;19988;-73
2023/08/03 06:35:26;;;;;;;;;;;;;;;-144.99;nan;52419.56;4995073;28;19955;-74
2023/08/03 06:37:53;;;;;;;;;;;;;;;-144.99;nan;52431.78;5004430;28;19929;-72
2023/08/03 06:40:20;;;;;;;;;;;;;;;-144.99;nan;52407.31;5002448;28;20019;-77
2023/08/03 06:42:46;;;;;;;;;;;;;;;-144.99;nan;52417.53;5016854;28;19964;-75
2023/08/03 06:45:13;;;;;;;;;;;;;;;-144.99;nan;52399.19;5005010;28;19940;-74
2023/08/03 06:47:41;;;;;;;;;;;;;;;-144.99;nan;52427.72;4999621;28;19969;-74
2023/08/03 06:50:09;;;;;;;;;;;;;;;-144.99;nan;52425.66;4994875;28;20009;-74
2023/08/03 06:52:35;;;;;;;;;;;;;;;-144.99;nan;52431.78;5005878;28;19929;-76
2023/08/03 06:55:02;;;;;;;;;;;;;;;-144.99;nan;52435.88;5003751;28;19971;-73
2023/08/03 06:57:28;;;;;;;;;;;;;;;-144.99;nan;52415.47;5002755;28;20027;-73
2023/08/03 06:59:55;;;;;;;;;;;;;;;-144.99;nan;52448.09;4993326;28;20077;-74
2023/08/03 07:02:22;;;;;;;;;;;;;;;-144.99;nan;52395.09;4995190;28;19964;-72
2023/08/03 07:04:50;;;;;;;;;;;;;;;-144.99;nan;52427.72;5001700;28;20488;-75
2023/08/03 07:07:16;;;;;;;;;;;;;;;-144.99;nan;52415.47;4990951;28;20043;-73
2023/08/03 07:09:48;;;;;;;;;;;;;;;-144.99;nan;52429.75;5005983;28;19936;-74
2023/08/03 07:12:14;;;;;;;;;;;;;;;-144.99;nan;52431.78;5002662;28;19926;-72
2023/08/03 07:14:41;;;;;;;;;;;;;;;-144.99;nan;52378.78;5001952;28;20019;-73
2023/08/03 07:17:07;;;;;;;;;;;;;;;-144.99;nan;52415.47;5000044;28;19963;-73
2023/08/03 07:19:34;;;;;;;;;;;;;;;-144.99;nan;52415.47;5001462;28;19929;-74
2023/08/03 07:22:02;;;;;;;;;;;;;;;-144.99;nan;52409.38;4990299;28;20390;-72
2023/08/03 07:24:28;;;;;;;;;;;;;;;-144.99;nan;52395.09;4997326;28;19966;-73
2023/08/03 07:26:55;;;;;;;;;;;;;;;-144.99;nan;52407.31;5000775;28;19926;-71
2023/08/03 07:29:21;;;;;;;;;;;;;;;-144.99;nan;52407.31;4998424;28;19946;-73
2023/08/03 07:31:49;;;;;;;;;;;;;;;-144.99;nan;52370.63;5007032;28;19999;-74
2023/08/03 07:34:15;;;;;;;;;;;;;;;-144.99;nan;52378.78;5015461;28;19933;-73
2023/08/03 07:36:42;;;;;;;;;;;;;;;-144.99;nan;52382.88;5005692;28;19946;-73
2023/08/03 07:39:10;;;;;;;;;;;;;;;-144.99;nan;52378.78;5007353;28;20322;-72
2023/08/03 07:41:37;;;;;;;;;;;;;;;-144.99;nan;52435.88;4993056;28;19996;-74
2023/08/03 07:44:03;;;;;;;;;;;;;;;-144.99;nan;52378.78;4999052;28;19973;-73
2023/08/03 07:46:30;;;;;;;;;;;;;;;-144.99;nan;52362.50;5001311;28;19933;-72
2023/08/03 07:48:57;;;;;;;;;;;;;;;-144.99;nan;52417.53;5002841;28;19937;-73
2023/08/03 07:51:23;;;;;;;;;;;;;;;-144.99;nan;52393.06;5001898;28;20006;-73
2023/08/03 07:53:50;;;;;;;;;;;;;;;-144.99;nan;52395.09;4988953;28;19996;-73
2023/08/03 07:56:19;;;;;;;;;;;;;;;-144.99;nan;52415.47;4997064;28;19926;-72
2023/08/03 07:58:45;;;;;;;;;;;;;;;-144.99;nan;52415.47;5001791;28;19933;-73
2023/08/03 08:01:12;;;;;;;;;;;;;;;-144.99;nan;52382.88;4996896;28;19934;-73
2023/08/03 08:03:39;;;;;;;;;;;;;;;-144.99;nan;52444.03;4997785;28;20012;-73
2023/08/03 08:06:06;;;;;;;;;;;;;;;-144.99;nan;52415.47;4993840;28;20006;-73
2023/08/03 08:08:33;;;;;;;;;;;;;;;-144.99;nan;52393.06;4993600;28;19929;-74
2023/08/03 08:10:59;;;;;;;;;;;;;;;-144.99;nan;52399.19;4993484;28;19961;-73
2023/08/03 08:13:27;;;;;;;;;;;;;;;-144.99;nan;52431.78;4996561;28;20035;-74
2023/08/03 08:15:57;;;;;;;;;;;;;;;-144.99;nan;52419.56;5000513;28;21138;-73
2023/08/03 08:18:24;;;;;;;;;;;;;;;-144.99;nan;52403.25;4997260;28;19968;-74
2023/08/03 08:20:54;;;;;;;;;;;;;;;-144.99;nan;52452.16;4999646;28;20338;-74
2023/08/03 08:23:21;;;;;;;;;;;;;;;-144.99;nan;52386.94;5005759;28;20370;-73
2023/08/03 08:25:48;;;;;;;;;;;;;;;-144.99;nan;52486.81;4995493;28;19930;-74
2023/08/03 08:28:14;;;;;;;;;;;;;;;-144.99;nan;52441.97;5008328;28;20003;-73
2023/08/03 08:30:42;;;;;;;;;;;;;;;-144.99;nan;52429.75;4998227;28;19988;-73
2023/08/03 08:33:08;;;;;;;;;;;;;;;-144.99;nan;52421.59;4994536;28;19961;-73
2023/08/03 08:35:35;;;;;;;;;;;;;;;-144.99;nan;52431.78;4993841;28;19926;-73
2023/08/03 08:38:01;;;;;;;;;;;;;;;-144.99;nan;52435.88;4998250;28;20027;-73
2023/08/03 08:40:28;;;;;;;;;;;;;;;-144.99;nan;52446.06;5000398;28;19933;-74
2023/08/03 08:42:55;;;;;;;;;;;;;;;-144.99;nan;52460.31;5002642;28;20004;-74
2023/08/03 08:45:21;;;;;;;;;;;;;;;-144.99;nan;52419.56;4997542;28;20079;-73
2023/08/03 08:47:49;;;;;;;;;;;;;;;-144.99;nan;52419.56;5001719;28;20041;-75
2023/08/03 08:50:16;;;;;;;;;;;;;;;-144.99;nan;52395.09;4996338;28;20036;-75
2023/08/03 08:52:43;;;;;;;;;;;;;;;-144.99;nan;52431.78;4993978;28;20013;-72
2023/08/03 08:55:13;;;;;;;;;;;;;;;-144.99;nan;52388.97;5000094;28;19976;-71
2023/08/03 08:57:40;;;;;;;;;;;;;;;-144.99;nan;52411.41;4996854;28;20009;-74
2023/08/03 09:00:07;;;;;;;;;;;;;;;-144.99;nan;52415.47;5004457;28;19929;-73
2023/08/03 09:02:34;;;;;;;;;;;;;;;-144.99;nan;52399.19;5004067;28;20021;-73
2023/08/03 09:05:10;;;;;;;;;;;;;;;-144.99;nan;52411.41;4999285;28;19997;-73
2023/08/03 09:07:36;;;;;;;;;;;;;;;-144.99;nan;52419.56;4993251;28;19929;-74
2023/08/03 09:10:03;;;;;;;;;;;;;;;-144.99;nan;52393.06;4997369;28;19976;-73
2023/08/03 09:12:30;;;;;;;;;;;;;;;-144.99;nan;52415.47;4997314;28;19999;-73
2023/08/03 09:14:57;;;;;;;;;;;;;;;-144.99;nan;52368.59;5022483;28;19944;-73
2023/08/03 09:17:24;;;;;;;;;;;;;;;-144.99;nan;52423.63;5016361;28;20278;-73
2023/08/03 09:19:51;;;;;;;;;;;;;;;-144.99;nan;52437.91;4997518;28;19984;-73
2023/08/03 09:22:19;;;;;;;;;;;;;;;-144.99;nan;52386.94;4996458;28;19936;-76
2023/08/03 09:24:47;;;;;;;;;;;;;;;-144.99;nan;52395.09;4996065;28;20061;-74
2023/08/03 09:27:16;;;;;;;;;;;;;;;-144.99;nan;52439.94;4995933;28;20028;-74
2023/08/03 09:29:43;;;;;;;;;;;;;;;-144.99;nan;52391.03;4993207;28;19961;-74
2023/08/03 09:32:09;;;;;;;;;;;;;;;-144.99;nan;52454.22;4993659;28;19961;-74
2023/08/03 09:34:37;;;;;;;;;;;;;;;-144.99;nan;52423.63;4995646;28;19980;-75
2023/08/03 09:37:04;;;;;;;;;;;;;;;-144.99;nan;52407.31;5000269;28;19933;-74
2023/08/03 09:39:34;;;;;;;;;;;;;;;-144.99;nan;52444.03;4992487;28;19933;-74
2023/08/03 09:42:03;;;;;;;;;;;;;;;-144.99;nan;52425.66;4998730;28;19940;-74
2023/08/03 09:44:30;;;;;;;;;;;;;;;-144.99;nan;52423.63;4999606;28;19933;-74
2023/08/03 09:46:57;;;;;;;;;;;;;;;-144.99;nan;52380.84;4999766;28;19984;-73
2023/08/03 09:49:25;;;;;;;;;;;;;;;-144.99;nan;52431.78;4991460;28;19977;-73
2023/08/03 09:51:53;;;;;;;;;;;;;;;-144.99;nan;52395.09;4994516;28;19937;-73
2023/08/03 09:54:23;;;;;;;;;;;;;;;-144.99;nan;52415.47;4997495;28;20004;-75
2023/08/03 09:56:54;;;;;;;;;;;;;;;-144.99;nan;52423.63;4988003;28;20467;-74
2023/08/03 09:59:24;;;;;;;;;;;;;;;-144.99;nan;52407.31;4998229;28;20408;-74
2023/08/03 10:01:53;;;;;;;;;;;;;;;-144.99;nan;52399.19;4993155;28;20017;-74
2023/08/03 10:04:21;;;;;;;;;;;;;;;-144.99;nan;52374.72;4995245;28;20041;-76
2023/08/03 10:06:47;;;;;;;;;;;;;;;-144.99;nan;52439.94;5021019;28;19979;-77
2023/08/03 10:09:16;;;;;;;;;;;;;;;-144.99;nan;52456.25;5009201;28;19958;-78
2023/08/03 10:11:46;;;;;;;;;;;;;;;-144.99;nan;52431.78;4995892;28;20010;-74
2023/08/03 10:14:16;;;;;;;;;;;;;;;-144.99;nan;52429.75;4998049;28;19947;-77
2023/08/03 10:16:44;;;;;;;;;;;;;;;-144.99;nan;52399.19;5001319;28;19992;-75
2023/08/03 10:19:11;;;;;;;;;;;;;;;-144.99;nan;52399.19;5008149;28;20030;-74
2023/08/03 10:21:38;;;;;;;;;;;;;;;-144.99;nan;52439.94;5006012;28;20533;-74
2023/08/03 10:24:08;;;;;;;;;;;;;;;-144.99;nan;52399.19;5004954;28;19971;-75
2023/08/03 10:26:35;;;;;;;;;;;;;;;-144.99;nan;52441.97;4994719;28;20015;-74
2023/08/03 10:29:02;;;;;;;;;;;;;;;-144.99;nan;52431.78;5003621;28;20379;-74
2023/08/03 10:31:30;;;;;;;;;;;;;;;-144.99;nan;52384.91;5002501;28;19963;-74
2023/08/03 10:34:05;;;;;;;;;;;;;;;-144.99;nan;52407.31;5000804;28;20025;-74
2023/08/03 10:36:38;;;;;;;;;;;;;;;-144.99;nan;52439.94;5001656;28;19945;-75
2023/08/03 10:39:06;;;;;;;;;;;;;;;-144.99;nan;52421.59;5006041;28;20412;-75
2023/08/03 10:41:36;;;;;;;;;;;;;;;-144.99;nan;52423.63;5006501;28;19977;-76
2023/08/03 10:44:21;;;;;;;;;;;;;;;-144.99;nan;52378.78;4993935;28;19977;-75
2023/08/03 10:46:49;;;;;;;;;;;;;;;-144.99;nan;52342.09;5007205;28;20045;-77
2023/08/03 10:49:33;;;;;;;;;;;;;;;-144.99;nan;52384.91;5003834;28;20009;-74
2023/08/03 10:52:14;;;;;;;;;;;;;;;-144.99;nan;52395.09;4999243;28;20001;-75
2023/08/03 10:54:41;;;;;;;;;;;;;;;-144.99;nan;52407.31;4998950;28;19947;-75
2023/08/03 10:57:08;;;;;;;;;;;;;;;-144.99;nan;52333.94;5022929;28;19948;-80
2023/08/03 10:59:36;;;;;;;;;;;;;;;-144.99;nan;52358.41;5031978;28;19948;-77
2023/08/03 11:02:10;;;;;;;;;;;;;;;-144.99;nan;52354.34;4996546;28;20007;-76
2023/08/03 11:04:36;;;;;;;;;;;;;;;-144.99;nan;52415.47;4993889;28;19953;-78
2023/08/03 11:07:04;;;;;;;;;;;;;;;-144.99;nan;52374.72;4993313;28;20409;-74
2023/08/03 11:09:30;;;;;;;;;;;;;;;-144.99;nan;52413.44;5001537;28;20461;-75
2023/08/03 11:11:57;;;;;;;;;;;;;;;-144.99;nan;52391.03;4992774;28;20002;-77
2023/08/03 11:14:24;;;;;;;;;;;;;;;-144.99;nan;52407.31;5000824;28;20342;-73
2023/08/03 11:16:50;;;;;;;;;;;;;;;-144.99;nan;52388.97;4999231;28;19959;-73
2023/08/03 11:19:18;;;;;;;;;;;;;;;-144.99;nan;52415.47;4995845;28;20046;-78
2023/08/03 11:21:45;;;;;;;;;;;;;;;-144.99;nan;52395.09;5007875;28;19966;-76
2023/08/03 11:24:11;;;;;;;;;;;;;;;-144.99;nan;52378.78;5006522;28;19959;-78
2023/08/03 11:26:38;;;;;;;;;;;;;;;-144.99;nan;52370.63;5006431;28;20010;-78
2023/08/03 11:29:06;;;;;;;;;;;;;;;-144.99;nan;52397.13;4999399;28;19952;-77
2023/08/03 11:31:33;;;;;;;;;;;;;;;-144.99;nan;52372.69;5002846;28;19975;-76
2023/08/03 11:34:00;;;;;;;;;;;;;;;-144.99;nan;52321.72;5003131;28;20013;-79
2023/08/03 11:36:28;;;;;;;;;;;;;;;-144.99;nan;52384.91;5008303;28;19949;-75
2023/08/03 11:38:54;;;;;;;;;;;;;;;-144.99;nan;52319.69;4993784;28;20020;-74
2023/08/03 11:41:22;;;;;;;;;;;;;;;-144.99;nan;52358.41;5005032;28;19974;-75
2023/08/03 11:43:50;;;;;;;;;;;;;;;-144.99;nan;52370.63;5002171;28;19968;-77
2023/08/03 11:46:20;;;;;;;;;;;;;;;-144.99;nan;52374.72;4999544;28;20550;-75
2023/08/03 11:48:46;;;;;;;;;;;;;;;-144.99;nan;52309.50;4995154;28;20430;-76
2023/08/03 11:51:13;;;;;;;;;;;;;;;-144.99;nan;52391.03;5001853;28;19976;-75
2023/08/03 11:53:42;;;;;;;;;;;;;;;-144.99;nan;52348.22;5005585;28;19983;-80
2023/08/03 11:56:10;;;;;;;;;;;;;;;-144.99;nan;52407.31;5014929;28;19951;-80
2023/08/03 11:58:36;;;;;;;;;;;;;;;-144.99;nan;52421.59;5017245;28;19969;-77
2023/08/03 12:01:04;;;;;;;;;;;;;;;-144.99;nan;52401.22;5004181;28;20059;-75
2023/08/03 12:03:31;;;;;;;;;;;;;;;-144.99;nan;52378.78;5000122;28;19964;-75
2023/08/03 12:06:01;;;;;;;;;;;;;;;-144.99;nan;52386.94;5000672;28;20001;-78
2023/08/03 12:08:27;;;;;;;;;;;;;;;-144.99;nan;52374.72;4992248;28;20003;-75
2023/08/03 12:11:02;;;;;;;;;;;;;;;-144.99;nan;52370.63;5003408;28;19957;-75
2023/08/03 12:13:28;;;;;;;;;;;;;;;-144.99;nan;52309.50;5001521;28;19985;-76
2023/08/03 12:15:55;;;;;;;;;;;;;;;-144.99;nan;52338.03;4996284;28;19943;-76
2023/08/03 12:18:21;;;;;;;;;;;;;;;-144.99;nan;52268.72;4997292;28;19950;-77
2023/08/03 12:20:49;;;;;;;;;;;;;;;-144.99;nan;52234.09;4997983;28;19943;-77
2023/08/03 12:23:16;;;;;;;;;;;;;;;-144.99;nan;52270.78;4996978;28;19971;-75
2023/08/03 12:25:42;;;;;;;;;;;;;;;-144.99;nan;52270.78;4997127;28;19978;-76
2023/08/03 12:28:12;;;;;;;;;;;;;;;-144.99;nan;52268.72;5004553;28;20414;-78
2023/08/03 12:30:39;;;;;;;;;;;;;;;-144.99;nan;52244.28;4998239;28;19981;-76
2023/08/03 12:33:06;;;;;;;;;;;;;;;-144.99;nan;52309.50;5011282;28;20014;-77
2023/08/03 12:35:32;;;;;;;;;;;;;;;-144.99;nan;52329.88;5005364;28;19975;-76
2023/08/03 12:37:59;;;;;;;;;;;;;;;-144.99;nan;52348.22;5003725;28;19947;-77
2023/08/03 12:40:26;;;;;;;;;;;;;;;-144.99;nan;52309.50;5009288;28;19988;-80
2023/08/03 12:42:53;;;;;;;;;;;;;;;-144.99;nan;52374.72;5019494;28;19966;-79
2023/08/03 12:45:21;;;;;;;;;;;;;;;-144.99;nan;52354.34;5010012;28;19950;-76